sensor_id;sensor_type;location;lat;lon;timestamp;P1;durP1;ratioP1;P2;durP2;ratioP2
42832;SDS011;64089;51.478;5.692;2023-05-07T00:02:21;10.20;;;6.00;;
42832;SDS011;64089;51.478;5.692;2023-05-07T00:04:47;8.35;;;5.53;;
42832;SDS011;64089;51.478;5.692;2023-05-07T00:07:13;8.57;;;5.32;;
42832;SDS011;64089;51.478;5.692;2023-05-07T00:09:39;8.90;;;5.53;;
42832;SDS011;64089;51.478;5.692;2023-05-07T00:12:08;8.18;;;5.20;;
42832;SDS011;64089;51.478;5.692;2023-05-07T00:14:33;9.18;;;5.53;;
42832;SDS011;64089;51.478;5.692;2023-05-07T00:16:59;11.10;;;5.57;;
42832;SDS011;64089;51.478;5.692;2023-05-07T00:19:25;10.93;;;5.65;;
42832;SDS011;64089;51.478;5.692;2023-05-07T00:21:50;10.25;;;5.57;;
42832;SDS011;64089;51.478;5.692;2023-05-07T00:24:18;10.07;;;5.40;;
42832;SDS011;64089;51.478;5.692;2023-05-07T00:26:44;7.85;;;5.10;;
42832;SDS011;64089;51.478;5.692;2023-05-07T00:29:09;12.02;;;5.97;;
42832;SDS011;64089;51.478;5.692;2023-05-07T00:31:35;9.70;;;5.53;;
42832;SDS011;64089;51.478;5.692;2023-05-07T00:34:01;10.73;;;5.75;;
42832;SDS011;64089;51.478;5.692;2023-05-07T00:36:26;12.32;;;5.38;;
42832;SDS011;64089;51.478;5.692;2023-05-07T00:38:53;7.05;;;4.50;;
42832;SDS011;64089;51.478;5.692;2023-05-07T00:41:19;7.00;;;4.45;;
42832;SDS011;64089;51.478;5.692;2023-05-07T00:43:45;9.50;;;5.10;;
42832;SDS011;64089;51.478;5.692;2023-05-07T00:46:10;7.95;;;5.03;;
42832;SDS011;64089;51.478;5.692;2023-05-07T00:48:37;8.77;;;5.50;;
42832;SDS011;64089;51.478;5.692;2023-05-07T00:51:02;7.72;;;5.18;;
42832;SDS011;64089;51.478;5.692;2023-05-07T00:53:28;11.43;;;5.40;;
42832;SDS011;64089;51.478;5.692;2023-05-07T00:55:55;13.30;;;5.68;;
42832;SDS011;64089;51.478;5.692;2023-05-07T00:58:21;11.77;;;5.35;;
42832;SDS011;64089;51.478;5.692;2023-05-07T01:00:47;10.88;;;5.80;;
42832;SDS011;64089;51.478;5.692;2023-05-07T01:03:13;8.73;;;5.18;;
42832;SDS011;64089;51.478;5.692;2023-05-07T01:05:38;10.43;;;5.07;;
42832;SDS011;64089;51.478;5.692;2023-05-07T01:08:04;10.18;;;5.38;;
42832;SDS011;64089;51.478;5.692;2023-05-07T01:10:30;8.63;;;5.35;;
42832;SDS011;64089;51.478;5.692;2023-05-07T01:12:57;13.18;;;5.00;;
42832;SDS011;64089;51.478;5.692;2023-05-07T01:15:24;9.68;;;5.40;;
42832;SDS011;64089;51.478;5.692;2023-05-07T01:17:50;8.45;;;5.93;;
42832;SDS011;64089;51.478;5.692;2023-05-07T01:20:15;6.35;;;4.30;;
42832;SDS011;64089;51.478;5.692;2023-05-07T01:22:43;8.68;;;4.50;;
42832;SDS011;64089;51.478;5.692;2023-05-07T01:25:09;9.02;;;5.47;;
42832;SDS011;64089;51.478;5.692;2023-05-07T01:27:35;9.95;;;5.55;;
42832;SDS011;64089;51.478;5.692;2023-05-07T01:30:02;12.48;;;5.88;;
42832;SDS011;64089;51.478;5.692;2023-05-07T01:35:29;10.30;;;6.38;;
42832;SDS011;64089;51.478;5.692;2023-05-07T01:37:58;15.88;;;6.50;;
42832;SDS011;64089;51.478;5.692;2023-05-07T01:40:25;10.02;;;6.53;;
42832;SDS011;64089;51.478;5.692;2023-05-07T01:42:51;9.65;;;6.47;;
42832;SDS011;64089;51.478;5.692;2023-05-07T01:45:18;12.55;;;7.13;;
42832;SDS011;64089;51.478;5.692;2023-05-07T01:47:43;13.43;;;6.80;;
42832;SDS011;64089;51.478;5.692;2023-05-07T01:50:09;13.05;;;7.55;;
42832;SDS011;64089;51.478;5.692;2023-05-07T01:52:36;14.73;;;8.05;;
42832;SDS011;64089;51.478;5.692;2023-05-07T01:55:03;11.70;;;6.75;;
42832;SDS011;64089;51.478;5.692;2023-05-07T01:57:30;13.35;;;7.25;;
42832;SDS011;64089;51.478;5.692;2023-05-07T01:59:55;17.63;;;8.98;;
42832;SDS011;64089;51.478;5.692;2023-05-07T02:02:21;13.75;;;8.55;;
42832;SDS011;64089;51.478;5.692;2023-05-07T02:04:46;15.85;;;7.78;;
42832;SDS011;64089;51.478;5.692;2023-05-07T02:07:12;12.85;;;6.57;;
42832;SDS011;64089;51.478;5.692;2023-05-07T02:09:38;17.23;;;8.38;;
42832;SDS011;64089;51.478;5.692;2023-05-07T02:12:04;14.48;;;8.68;;
42832;SDS011;64089;51.478;5.692;2023-05-07T02:14:30;11.95;;;8.35;;
42832;SDS011;64089;51.478;5.692;2023-05-07T02:16:55;16.40;;;8.68;;
42832;SDS011;64089;51.478;5.692;2023-05-07T02:19:21;16.27;;;9.25;;
42832;SDS011;64089;51.478;5.692;2023-05-07T02:21:47;15.73;;;9.02;;
42832;SDS011;64089;51.478;5.692;2023-05-07T02:24:13;18.85;;;9.88;;
42832;SDS011;64089;51.478;5.692;2023-05-07T02:26:39;14.00;;;8.40;;
42832;SDS011;64089;51.478;5.692;2023-05-07T02:29:08;13.68;;;8.45;;
42832;SDS011;64089;51.478;5.692;2023-05-07T02:31:33;18.98;;;8.35;;
42832;SDS011;64089;51.478;5.692;2023-05-07T02:33:59;15.85;;;9.07;;
42832;SDS011;64089;51.478;5.692;2023-05-07T02:36:25;17.50;;;10.23;;
42832;SDS011;64089;51.478;5.692;2023-05-07T02:38:54;14.18;;;8.30;;
42832;SDS011;64089;51.478;5.692;2023-05-07T02:41:20;22.23;;;8.85;;
42832;SDS011;64089;51.478;5.692;2023-05-07T02:43:45;17.55;;;8.23;;
42832;SDS011;64089;51.478;5.692;2023-05-07T02:46:11;16.98;;;9.25;;
42832;SDS011;64089;51.478;5.692;2023-05-07T02:48:37;16.70;;;8.88;;
42832;SDS011;64089;51.478;5.692;2023-05-07T02:51:03;16.00;;;8.00;;
42832;SDS011;64089;51.478;5.692;2023-05-07T02:53:29;17.42;;;8.98;;
42832;SDS011;64089;51.478;5.692;2023-05-07T02:55:55;13.82;;;7.63;;
42832;SDS011;64089;51.478;5.692;2023-05-07T02:58:22;17.15;;;9.40;;
42832;SDS011;64089;51.478;5.692;2023-05-07T03:00:47;14.13;;;8.23;;
42832;SDS011;64089;51.478;5.692;2023-05-07T03:03:13;15.30;;;9.18;;
42832;SDS011;64089;51.478;5.692;2023-05-07T03:05:39;14.80;;;8.50;;
42832;SDS011;64089;51.478;5.692;2023-05-07T03:08:05;14.73;;;8.40;;
42832;SDS011;64089;51.478;5.692;2023-05-07T03:10:32;13.30;;;8.18;;
42832;SDS011;64089;51.478;5.692;2023-05-07T03:12:57;15.90;;;7.85;;
42832;SDS011;64089;51.478;5.692;2023-05-07T03:15:23;12.35;;;7.63;;
42832;SDS011;64089;51.478;5.692;2023-05-07T03:17:48;17.55;;;8.07;;
42832;SDS011;64089;51.478;5.692;2023-05-07T03:20:14;12.60;;;7.82;;
42832;SDS011;64089;51.478;5.692;2023-05-07T03:22:42;12.77;;;7.63;;
42832;SDS011;64089;51.478;5.692;2023-05-07T03:25:08;9.95;;;7.25;;
42832;SDS011;64089;51.478;5.692;2023-05-07T03:27:34;13.98;;;7.22;;
42832;SDS011;64089;51.478;5.692;2023-05-07T03:30:00;13.57;;;8.18;;
42832;SDS011;64089;51.478;5.692;2023-05-07T03:32:25;17.27;;;9.23;;
42832;SDS011;64089;51.478;5.692;2023-05-07T03:34:51;16.27;;;9.88;;
42832;SDS011;64089;51.478;5.692;2023-05-07T03:37:17;17.17;;;8.32;;
42832;SDS011;64089;51.478;5.692;2023-05-07T03:39:43;14.00;;;8.88;;
42832;SDS011;64089;51.478;5.692;2023-05-07T03:42:09;20.00;;;10.35;;
42832;SDS011;64089;51.478;5.692;2023-05-07T03:44:34;18.70;;;9.82;;
42832;SDS011;64089;51.478;5.692;2023-05-07T03:47:01;16.98;;;9.90;;
42832;SDS011;64089;51.478;5.692;2023-05-07T03:49:27;16.23;;;9.82;;
42832;SDS011;64089;51.478;5.692;2023-05-07T03:51:53;22.20;;;10.55;;
42832;SDS011;64089;51.478;5.692;2023-05-07T03:54:18;19.20;;;10.52;;
42832;SDS011;64089;51.478;5.692;2023-05-07T03:56:44;18.95;;;10.15;;
42832;SDS011;64089;51.478;5.692;2023-05-07T03:59:09;18.48;;;10.43;;
42832;SDS011;64089;51.478;5.692;2023-05-07T04:01:35;18.63;;;10.43;;
42832;SDS011;64089;51.478;5.692;2023-05-07T04:04:01;17.38;;;9.80;;
42832;SDS011;64089;51.478;5.692;2023-05-07T04:06:26;19.48;;;10.43;;
42832;SDS011;64089;51.478;5.692;2023-05-07T04:08:52;16.45;;;10.60;;
42832;SDS011;64089;51.478;5.692;2023-05-07T04:11:18;18.00;;;9.68;;
42832;SDS011;64089;51.478;5.692;2023-05-07T04:13:43;16.58;;;10.60;;
42832;SDS011;64089;51.478;5.692;2023-05-07T04:16:09;20.33;;;11.13;;
42832;SDS011;64089;51.478;5.692;2023-05-07T04:18:35;25.73;;;10.38;;
42832;SDS011;64089;51.478;5.692;2023-05-07T04:21:00;18.63;;;10.80;;
42832;SDS011;64089;51.478;5.692;2023-05-07T04:23:26;17.77;;;9.93;;
42832;SDS011;64089;51.478;5.692;2023-05-07T04:25:51;15.75;;;9.20;;
42832;SDS011;64089;51.478;5.692;2023-05-07T04:28:17;19.40;;;9.85;;
42832;SDS011;64089;51.478;5.692;2023-05-07T04:30:43;23.67;;;12.65;;
42832;SDS011;64089;51.478;5.692;2023-05-07T04:33:08;21.35;;;10.75;;
42832;SDS011;64089;51.478;5.692;2023-05-07T04:35:35;21.15;;;11.18;;
42832;SDS011;64089;51.478;5.692;2023-05-07T04:38:00;17.48;;;10.35;;
42832;SDS011;64089;51.478;5.692;2023-05-07T04:40:26;20.48;;;10.60;;
42832;SDS011;64089;51.478;5.692;2023-05-07T04:42:52;16.15;;;9.77;;
42832;SDS011;64089;51.478;5.692;2023-05-07T04:45:18;21.75;;;10.63;;
42832;SDS011;64089;51.478;5.692;2023-05-07T04:47:43;17.38;;;10.27;;
42832;SDS011;64089;51.478;5.692;2023-05-07T04:50:09;20.50;;;11.18;;
42832;SDS011;64089;51.478;5.692;2023-05-07T04:52:35;19.63;;;9.93;;
42832;SDS011;64089;51.478;5.692;2023-05-07T04:55:01;19.60;;;10.60;;
42832;SDS011;64089;51.478;5.692;2023-05-07T04:57:27;13.85;;;8.93;;
42832;SDS011;64089;51.478;5.692;2023-05-07T04:59:53;16.80;;;9.70;;
42832;SDS011;64089;51.478;5.692;2023-05-07T05:02:18;18.27;;;10.13;;
42832;SDS011;64089;51.478;5.692;2023-05-07T05:04:44;15.75;;;9.68;;
42832;SDS011;64089;51.478;5.692;2023-05-07T05:07:10;16.95;;;9.00;;
42832;SDS011;64089;51.478;5.692;2023-05-07T05:09:36;19.15;;;9.27;;
42832;SDS011;64089;51.478;5.692;2023-05-07T05:12:01;19.15;;;9.77;;
42832;SDS011;64089;51.478;5.692;2023-05-07T05:14:27;18.73;;;10.13;;
42832;SDS011;64089;51.478;5.692;2023-05-07T05:16:53;15.98;;;8.77;;
42832;SDS011;64089;51.478;5.692;2023-05-07T05:19:18;17.17;;;9.00;;
42832;SDS011;64089;51.478;5.692;2023-05-07T05:21:44;20.35;;;9.70;;
42832;SDS011;64089;51.478;5.692;2023-05-07T05:24:10;19.52;;;9.57;;
42832;SDS011;64089;51.478;5.692;2023-05-07T05:26:35;21.15;;;10.18;;
42832;SDS011;64089;51.478;5.692;2023-05-07T05:29:01;15.77;;;8.60;;
42832;SDS011;64089;51.478;5.692;2023-05-07T05:31:26;19.98;;;9.68;;
42832;SDS011;64089;51.478;5.692;2023-05-07T05:33:52;20.55;;;10.13;;
42832;SDS011;64089;51.478;5.692;2023-05-07T05:36:17;18.75;;;9.60;;
42832;SDS011;64089;51.478;5.692;2023-05-07T05:38:43;18.10;;;9.95;;
42832;SDS011;64089;51.478;5.692;2023-05-07T05:41:09;18.73;;;10.57;;
42832;SDS011;64089;51.478;5.692;2023-05-07T05:43:35;14.27;;;8.32;;
42832;SDS011;64089;51.478;5.692;2023-05-07T05:46:01;15.38;;;8.32;;
42832;SDS011;64089;51.478;5.692;2023-05-07T05:48:26;17.30;;;9.23;;
42832;SDS011;64089;51.478;5.692;2023-05-07T05:50:53;14.70;;;8.70;;
42832;SDS011;64089;51.478;5.692;2023-05-07T05:53:19;12.63;;;8.23;;
42832;SDS011;64089;51.478;5.692;2023-05-07T05:55:45;15.98;;;7.25;;
42832;SDS011;64089;51.478;5.692;2023-05-07T05:58:11;15.15;;;9.38;;
42832;SDS011;64089;51.478;5.692;2023-05-07T06:00:37;13.25;;;8.30;;
42832;SDS011;64089;51.478;5.692;2023-05-07T06:03:02;13.40;;;8.18;;
42832;SDS011;64089;51.478;5.692;2023-05-07T06:05:28;12.75;;;8.18;;
42832;SDS011;64089;51.478;5.692;2023-05-07T06:07:54;11.32;;;7.30;;
42832;SDS011;64089;51.478;5.692;2023-05-07T06:10:19;16.40;;;9.70;;
42832;SDS011;64089;51.478;5.692;2023-05-07T06:12:45;13.07;;;7.55;;
42832;SDS011;64089;51.478;5.692;2023-05-07T06:15:10;14.65;;;8.05;;
42832;SDS011;64089;51.478;5.692;2023-05-07T06:17:36;14.40;;;8.40;;
42832;SDS011;64089;51.478;5.692;2023-05-07T06:20:01;20.90;;;8.43;;
42832;SDS011;64089;51.478;5.692;2023-05-07T06:22:27;14.30;;;7.32;;
42832;SDS011;64089;51.478;5.692;2023-05-07T06:24:53;14.35;;;8.82;;
42832;SDS011;64089;51.478;5.692;2023-05-07T06:27:18;12.98;;;7.88;;
42832;SDS011;64089;51.478;5.692;2023-05-07T06:29:44;13.55;;;7.95;;
42832;SDS011;64089;51.478;5.692;2023-05-07T06:32:10;14.48;;;8.30;;
42832;SDS011;64089;51.478;5.692;2023-05-07T06:34:37;13.23;;;7.47;;
42832;SDS011;64089;51.478;5.692;2023-05-07T06:37:03;11.18;;;8.20;;
42832;SDS011;64089;51.478;5.692;2023-05-07T06:39:29;15.02;;;7.78;;
42832;SDS011;64089;51.478;5.692;2023-05-07T06:41:54;13.55;;;8.00;;
42832;SDS011;64089;51.478;5.692;2023-05-07T06:44:20;13.35;;;8.30;;
42832;SDS011;64089;51.478;5.692;2023-05-07T06:46:46;14.10;;;7.85;;
42832;SDS011;64089;51.478;5.692;2023-05-07T06:49:12;14.60;;;7.85;;
42832;SDS011;64089;51.478;5.692;2023-05-07T06:51:38;15.50;;;8.30;;
42832;SDS011;64089;51.478;5.692;2023-05-07T06:54:04;13.57;;;7.57;;
42832;SDS011;64089;51.478;5.692;2023-05-07T06:56:30;11.80;;;7.55;;
42832;SDS011;64089;51.478;5.692;2023-05-07T06:58:56;13.27;;;7.70;;
42832;SDS011;64089;51.478;5.692;2023-05-07T07:01:22;12.85;;;8.02;;
42832;SDS011;64089;51.478;5.692;2023-05-07T07:03:48;11.50;;;8.10;;
42832;SDS011;64089;51.478;5.692;2023-05-07T07:06:13;16.65;;;7.97;;
42832;SDS011;64089;51.478;5.692;2023-05-07T07:08:39;15.65;;;8.48;;
42832;SDS011;64089;51.478;5.692;2023-05-07T07:11:05;11.35;;;8.45;;
42832;SDS011;64089;51.478;5.692;2023-05-07T07:13:31;14.23;;;8.05;;
42832;SDS011;64089;51.478;5.692;2023-05-07T07:15:57;11.07;;;6.80;;
42832;SDS011;64089;51.478;5.692;2023-05-07T07:18:22;13.38;;;7.03;;
42832;SDS011;64089;51.478;5.692;2023-05-07T07:20:48;10.57;;;7.05;;
42832;SDS011;64089;51.478;5.692;2023-05-07T07:23:14;10.38;;;7.20;;
42832;SDS011;64089;51.478;5.692;2023-05-07T07:25:39;10.70;;;6.40;;
42832;SDS011;64089;51.478;5.692;2023-05-07T07:28:06;14.88;;;7.10;;
42832;SDS011;64089;51.478;5.692;2023-05-07T07:30:31;13.75;;;6.95;;
42832;SDS011;64089;51.478;5.692;2023-05-07T07:32:57;10.35;;;6.30;;
42832;SDS011;64089;51.478;5.692;2023-05-07T07:35:28;10.63;;;6.40;;
42832;SDS011;64089;51.478;5.692;2023-05-07T07:37:54;11.65;;;6.38;;
42832;SDS011;64089;51.478;5.692;2023-05-07T07:40:20;9.05;;;6.13;;
42832;SDS011;64089;51.478;5.692;2023-05-07T07:42:45;15.68;;;6.70;;
42832;SDS011;64089;51.478;5.692;2023-05-07T07:45:11;13.65;;;6.18;;
42832;SDS011;64089;51.478;5.692;2023-05-07T07:47:37;11.38;;;6.88;;
42832;SDS011;64089;51.478;5.692;2023-05-07T07:50:03;10.50;;;6.82;;
42832;SDS011;64089;51.478;5.692;2023-05-07T07:52:29;14.15;;;7.07;;
42832;SDS011;64089;51.478;5.692;2023-05-07T07:54:55;14.77;;;7.28;;
42832;SDS011;64089;51.478;5.692;2023-05-07T07:57:20;12.70;;;6.85;;
42832;SDS011;64089;51.478;5.692;2023-05-07T07:59:46;17.05;;;6.80;;
42832;SDS011;64089;51.478;5.692;2023-05-07T08:02:11;17.52;;;6.53;;
42832;SDS011;64089;51.478;5.692;2023-05-07T08:04:37;15.23;;;6.18;;
42832;SDS011;64089;51.478;5.692;2023-05-07T08:07:03;11.27;;;6.50;;
42832;SDS011;64089;51.478;5.692;2023-05-07T08:09:29;13.25;;;6.85;;
42832;SDS011;64089;51.478;5.692;2023-05-07T08:11:54;11.75;;;6.15;;
42832;SDS011;64089;51.478;5.692;2023-05-07T08:14:20;10.57;;;6.53;;
42832;SDS011;64089;51.478;5.692;2023-05-07T08:16:45;13.02;;;6.32;;
42832;SDS011;64089;51.478;5.692;2023-05-07T08:19:11;8.77;;;6.07;;
42832;SDS011;64089;51.478;5.692;2023-05-07T08:21:40;11.05;;;6.30;;
42832;SDS011;64089;51.478;5.692;2023-05-07T08:24:06;8.32;;;5.63;;
42832;SDS011;64089;51.478;5.692;2023-05-07T08:26:31;14.32;;;6.93;;
42832;SDS011;64089;51.478;5.692;2023-05-07T08:28:57;12.07;;;6.55;;
42832;SDS011;64089;51.478;5.692;2023-05-07T08:31:23;9.95;;;7.20;;
42832;SDS011;64089;51.478;5.692;2023-05-07T08:33:49;13.50;;;8.68;;
42832;SDS011;64089;51.478;5.692;2023-05-07T08:36:18;12.65;;;8.13;;
42832;SDS011;64089;51.478;5.692;2023-05-07T08:38:44;25.95;;;12.00;;
42832;SDS011;64089;51.478;5.692;2023-05-07T08:41:10;12.40;;;7.35;;
42832;SDS011;64089;51.478;5.692;2023-05-07T08:43:36;16.13;;;7.13;;
42832;SDS011;64089;51.478;5.692;2023-05-07T08:46:05;12.50;;;7.25;;
42832;SDS011;64089;51.478;5.692;2023-05-07T08:48:34;12.10;;;6.60;;
42832;SDS011;64089;51.478;5.692;2023-05-07T08:51:00;10.23;;;6.97;;
42832;SDS011;64089;51.478;5.692;2023-05-07T08:53:26;13.52;;;7.03;;
42832;SDS011;64089;51.478;5.692;2023-05-07T08:55:52;11.90;;;7.10;;
42832;SDS011;64089;51.478;5.692;2023-05-07T08:58:18;10.48;;;6.55;;
42832;SDS011;64089;51.478;5.692;2023-05-07T09:00:44;12.80;;;7.10;;
42832;SDS011;64089;51.478;5.692;2023-05-07T09:03:09;8.88;;;5.95;;
42832;SDS011;64089;51.478;5.692;2023-05-07T09:05:37;8.30;;;5.55;;
42832;SDS011;64089;51.478;5.692;2023-05-07T09:08:03;10.52;;;6.97;;
42832;SDS011;64089;51.478;5.692;2023-05-07T09:10:32;10.40;;;5.40;;
42832;SDS011;64089;51.478;5.692;2023-05-07T09:12:58;6.85;;;5.15;;
42832;SDS011;64089;51.478;5.692;2023-05-07T09:15:26;10.48;;;6.15;;
42832;SDS011;64089;51.478;5.692;2023-05-07T09:17:53;12.27;;;6.13;;
42832;SDS011;64089;51.478;5.692;2023-05-07T09:20:19;12.70;;;6.43;;
42832;SDS011;64089;51.478;5.692;2023-05-07T09:22:45;11.70;;;6.35;;
42832;SDS011;64089;51.478;5.692;2023-05-07T09:25:10;12.38;;;5.47;;
42832;SDS011;64089;51.478;5.692;2023-05-07T09:27:36;14.38;;;5.32;;
42832;SDS011;64089;51.478;5.692;2023-05-07T09:30:05;7.68;;;5.30;;
42832;SDS011;64089;51.478;5.692;2023-05-07T09:32:35;8.52;;;5.85;;
42832;SDS011;64089;51.478;5.692;2023-05-07T09:35:03;9.73;;;6.07;;
42832;SDS011;64089;51.478;5.692;2023-05-07T09:37:30;13.18;;;6.57;;
42832;SDS011;64089;51.478;5.692;2023-05-07T09:39:56;9.80;;;6.50;;
42832;SDS011;64089;51.478;5.692;2023-05-07T09:42:25;13.57;;;6.47;;
42832;SDS011;64089;51.478;5.692;2023-05-07T09:44:52;11.13;;;6.25;;
42832;SDS011;64089;51.478;5.692;2023-05-07T09:47:21;8.00;;;5.32;;
42832;SDS011;64089;51.478;5.692;2023-05-07T09:49:49;14.07;;;6.32;;
42832;SDS011;64089;51.478;5.692;2023-05-07T09:52:20;10.27;;;6.03;;
42832;SDS011;64089;51.478;5.692;2023-05-07T09:54:46;12.10;;;6.22;;
42832;SDS011;64089;51.478;5.692;2023-05-07T09:57:13;8.45;;;5.43;;
42832;SDS011;64089;51.478;5.692;2023-05-07T09:59:39;9.27;;;5.88;;
42832;SDS011;64089;51.478;5.692;2023-05-07T10:02:08;9.40;;;4.90;;
42832;SDS011;64089;51.478;5.692;2023-05-07T10:04:35;11.57;;;5.72;;
42832;SDS011;64089;51.478;5.692;2023-05-07T10:07:01;9.55;;;6.05;;
42832;SDS011;64089;51.478;5.692;2023-05-07T10:09:29;8.15;;;5.30;;
42832;SDS011;64089;51.478;5.692;2023-05-07T10:11:55;8.15;;;5.38;;
42832;SDS011;64089;51.478;5.692;2023-05-07T10:14:22;12.48;;;5.38;;
42832;SDS011;64089;51.478;5.692;2023-05-07T10:16:48;6.82;;;4.82;;
42832;SDS011;64089;51.478;5.692;2023-05-07T10:19:14;10.25;;;6.05;;
42832;SDS011;64089;51.478;5.692;2023-05-07T10:21:44;6.82;;;5.15;;
42832;SDS011;64089;51.478;5.692;2023-05-07T10:24:25;7.97;;;4.05;;
42832;SDS011;64089;51.478;5.692;2023-05-07T10:26:52;21.05;;;8.55;;
42832;SDS011;64089;51.478;5.692;2023-05-07T10:29:21;20.17;;;9.70;;
42832;SDS011;64089;51.478;5.692;2023-05-07T10:34:21;9.30;;;5.38;;
42832;SDS011;64089;51.478;5.692;2023-05-07T10:36:50;5.57;;;3.78;;
42832;SDS011;64089;51.478;5.692;2023-05-07T10:39:16;7.28;;;3.97;;
42832;SDS011;64089;51.478;5.692;2023-05-07T10:41:42;10.35;;;4.05;;
42832;SDS011;64089;51.478;5.692;2023-05-07T10:44:08;5.80;;;4.18;;
42832;SDS011;64089;51.478;5.692;2023-05-07T10:46:34;5.88;;;4.05;;
42832;SDS011;64089;51.478;5.692;2023-05-07T10:51:26;8.32;;;4.00;;
42832;SDS011;64089;51.478;5.692;2023-05-07T10:56:40;3.67;;;2.60;;
42832;SDS011;64089;51.478;5.692;2023-05-07T11:04:21;5.82;;;3.63;;
42832;SDS011;64089;51.478;5.692;2023-05-07T11:12:17;8.50;;;3.28;;
42832;SDS011;64089;51.478;5.692;2023-05-07T11:15:07;5.38;;;3.45;;
42832;SDS011;64089;51.478;5.692;2023-05-07T11:17:34;4.95;;;3.15;;
42832;SDS011;64089;51.478;5.692;2023-05-07T11:20:00;4.82;;;3.08;;
42832;SDS011;64089;51.478;5.692;2023-05-07T11:24:55;5.90;;;3.22;;
42832;SDS011;64089;51.478;5.692;2023-05-07T11:27:28;6.22;;;3.60;;
42832;SDS011;64089;51.478;5.692;2023-05-07T11:29:54;5.43;;;2.92;;
42832;SDS011;64089;51.478;5.692;2023-05-07T11:32:24;7.22;;;3.90;;
42832;SDS011;64089;51.478;5.692;2023-05-07T11:34:52;5.10;;;3.47;;
42832;SDS011;64089;51.478;5.692;2023-05-07T11:37:19;5.95;;;2.85;;
42832;SDS011;64089;51.478;5.692;2023-05-07T11:39:45;9.60;;;3.42;;
42832;SDS011;64089;51.478;5.692;2023-05-07T11:44:56;4.30;;;2.58;;
42832;SDS011;64089;51.478;5.692;2023-05-07T11:47:22;4.10;;;2.83;;
42832;SDS011;64089;51.478;5.692;2023-05-07T11:49:49;7.93;;;2.90;;
42832;SDS011;64089;51.478;5.692;2023-05-07T11:52:17;3.70;;;2.45;;
42832;SDS011;64089;51.478;5.692;2023-05-07T11:54:53;3.60;;;2.15;;
42832;SDS011;64089;51.478;5.692;2023-05-07T11:57:24;4.97;;;2.60;;
42832;SDS011;64089;51.478;5.692;2023-05-07T11:59:53;5.72;;;3.03;;
42832;SDS011;64089;51.478;5.692;2023-05-07T12:02:19;5.53;;;2.70;;
42832;SDS011;64089;51.478;5.692;2023-05-07T12:04:45;4.68;;;3.00;;
42832;SDS011;64089;51.478;5.692;2023-05-07T12:07:11;3.70;;;2.30;;
42832;SDS011;64089;51.478;5.692;2023-05-07T12:09:38;4.47;;;2.05;;
42832;SDS011;64089;51.478;5.692;2023-05-07T12:12:04;2.63;;;2.20;;
42832;SDS011;64089;51.478;5.692;2023-05-07T12:14:30;5.60;;;2.70;;
42832;SDS011;64089;51.478;5.692;2023-05-07T12:16:57;8.07;;;3.42;;
42832;SDS011;64089;51.478;5.692;2023-05-07T12:19:24;8.18;;;3.33;;
42832;SDS011;64089;51.478;5.692;2023-05-07T12:21:49;8.07;;;2.83;;
42832;SDS011;64089;51.478;5.692;2023-05-07T12:24:15;5.05;;;3.15;;
42832;SDS011;64089;51.478;5.692;2023-05-07T12:26:41;4.25;;;2.78;;
42832;SDS011;64089;51.478;5.692;2023-05-07T12:29:08;7.18;;;2.63;;
42832;SDS011;64089;51.478;5.692;2023-05-07T12:31:33;4.47;;;2.85;;
42832;SDS011;64089;51.478;5.692;2023-05-07T12:33:59;3.08;;;1.88;;
42832;SDS011;64089;51.478;5.692;2023-05-07T12:36:25;7.78;;;2.85;;
42832;SDS011;64089;51.478;5.692;2023-05-07T12:38:50;4.13;;;1.83;;
42832;SDS011;64089;51.478;5.692;2023-05-07T12:41:16;18.10;;;2.78;;
42832;SDS011;64089;51.478;5.692;2023-05-07T12:43:46;3.95;;;1.90;;
42832;SDS011;64089;51.478;5.692;2023-05-07T12:46:11;2.10;;;1.70;;
42832;SDS011;64089;51.478;5.692;2023-05-07T12:48:43;4.65;;;2.40;;
42832;SDS011;64089;51.478;5.692;2023-05-07T12:53:42;4.28;;;2.35;;
42832;SDS011;64089;51.478;5.692;2023-05-07T12:56:07;5.22;;;2.25;;
42832;SDS011;64089;51.478;5.692;2023-05-07T12:58:34;5.93;;;2.65;;
42832;SDS011;64089;51.478;5.692;2023-05-07T13:01:04;7.57;;;2.67;;
42832;SDS011;64089;51.478;5.692;2023-05-07T13:03:32;5.43;;;2.72;;
42832;SDS011;64089;51.478;5.692;2023-05-07T13:06:03;5.93;;;2.25;;
42832;SDS011;64089;51.478;5.692;2023-05-07T13:08:38;1.90;;;1.55;;
42832;SDS011;64089;51.478;5.692;2023-05-07T13:11:10;4.03;;;1.08;;
42832;SDS011;64089;51.478;5.692;2023-05-07T13:13:37;1.90;;;1.10;;
42832;SDS011;64089;51.478;5.692;2023-05-07T13:16:07;3.53;;;1.35;;
42832;SDS011;64089;51.478;5.692;2023-05-07T13:18:34;2.33;;;1.65;;
42832;SDS011;64089;51.478;5.692;2023-05-07T13:21:00;4.82;;;1.88;;
42832;SDS011;64089;51.478;5.692;2023-05-07T13:23:26;3.92;;;1.52;;
42832;SDS011;64089;51.478;5.692;2023-05-07T13:25:52;12.85;;;1.90;;
42832;SDS011;64089;51.478;5.692;2023-05-07T13:28:21;3.15;;;1.38;;
42832;SDS011;64089;51.478;5.692;2023-05-07T13:30:51;8.00;;;1.70;;
42832;SDS011;64089;51.478;5.692;2023-05-07T13:33:18;3.13;;;1.48;;
42832;SDS011;64089;51.478;5.692;2023-05-07T13:35:44;6.50;;;1.90;;
42832;SDS011;64089;51.478;5.692;2023-05-07T13:38:10;3.58;;;1.90;;
42832;SDS011;64089;51.478;5.692;2023-05-07T13:40:35;2.05;;;1.40;;
42832;SDS011;64089;51.478;5.692;2023-05-07T13:43:01;2.45;;;1.70;;
42832;SDS011;64089;51.478;5.692;2023-05-07T13:45:27;3.15;;;1.65;;
42832;SDS011;64089;51.478;5.692;2023-05-07T13:47:54;3.47;;;1.98;;
42832;SDS011;64089;51.478;5.692;2023-05-07T13:50:21;5.47;;;2.00;;
42832;SDS011;64089;51.478;5.692;2023-05-07T13:52:46;5.15;;;1.92;;
42832;SDS011;64089;51.478;5.692;2023-05-07T13:55:18;3.58;;;2.20;;
42832;SDS011;64089;51.478;5.692;2023-05-07T13:57:48;7.13;;;1.70;;
42832;SDS011;64089;51.478;5.692;2023-05-07T14:00:24;6.53;;;2.22;;
42832;SDS011;64089;51.478;5.692;2023-05-07T14:02:51;4.45;;;2.10;;
42832;SDS011;64089;51.478;5.692;2023-05-07T14:05:17;4.07;;;2.33;;
42832;SDS011;64089;51.478;5.692;2023-05-07T14:07:42;3.83;;;2.30;;
42832;SDS011;64089;51.478;5.692;2023-05-07T14:10:08;9.10;;;2.75;;
42832;SDS011;64089;51.478;5.692;2023-05-07T14:12:35;4.53;;;2.20;;
42832;SDS011;64089;51.478;5.692;2023-05-07T14:15:01;10.13;;;2.92;;
42832;SDS011;64089;51.478;5.692;2023-05-07T14:17:27;5.47;;;2.30;;
42832;SDS011;64089;51.478;5.692;2023-05-07T14:19:53;4.35;;;2.47;;
42832;SDS011;64089;51.478;5.692;2023-05-07T14:22:19;4.47;;;2.67;;
42832;SDS011;64089;51.478;5.692;2023-05-07T14:24:48;4.63;;;3.03;;
42832;SDS011;64089;51.478;5.692;2023-05-07T14:27:15;8.23;;;3.13;;
42832;SDS011;64089;51.478;5.692;2023-05-07T14:29:41;6.63;;;2.97;;
42832;SDS011;64089;51.478;5.692;2023-05-07T14:32:07;4.03;;;2.13;;
42832;SDS011;64089;51.478;5.692;2023-05-07T14:34:33;14.98;;;2.50;;
42832;SDS011;64089;51.478;5.692;2023-05-07T14:36:59;7.05;;;2.85;;
42832;SDS011;64089;51.478;5.692;2023-05-07T14:39:25;4.32;;;2.92;;
42832;SDS011;64089;51.478;5.692;2023-05-07T14:41:51;8.55;;;3.08;;
42832;SDS011;64089;51.478;5.692;2023-05-07T14:44:16;5.10;;;2.65;;
42832;SDS011;64089;51.478;5.692;2023-05-07T14:46:42;4.60;;;2.88;;
42832;SDS011;64089;51.478;5.692;2023-05-07T14:49:08;6.07;;;2.83;;
42832;SDS011;64089;51.478;5.692;2023-05-07T14:51:41;6.10;;;2.90;;
42832;SDS011;64089;51.478;5.692;2023-05-07T14:54:11;3.58;;;2.50;;
42832;SDS011;64089;51.478;5.692;2023-05-07T14:56:37;4.25;;;2.38;;
42832;SDS011;64089;51.478;5.692;2023-05-07T14:59:03;3.60;;;2.13;;
42832;SDS011;64089;51.478;5.692;2023-05-07T15:01:28;10.27;;;2.38;;
42832;SDS011;64089;51.478;5.692;2023-05-07T15:03:54;4.57;;;2.58;;